Sign in with
Sign up | Sign in
Your question
Solved

Cpu Overheating After 4 Days Of New Thermal Paste

Last response: in CPUs
Share
April 5, 2013 7:42:46 AM

Hello guys,
i am facing a problem with my laptop, i dissablembed it and applied new paste on it.. the next 4-5 days were good but after that the idle temperature have gone up significantly (9-10C) and the most noticeable thing is only after 2 mins of gaming the temps rise up to 95C.

this never happened before disassembly and in the 4 days after applying new paste, Only after a few hours these temps were reached or when loading new levels.
i don't understand what might be the problem as the fan is working fine, please give your insights
Thanks.

I Am using RealTemp for monitoring and my specs
CPU: Intel Core2Duo T6600 2.2Ghz
GPU: Ati Mobility Radeon 4570

Thermal Paste Specs:

Color: Dark Grey
Thermal Conductivity: >4.5
Thermal impedance: <0.067
Specific gravity: >2.5
Thixotropic index: 380+/-10
Operating temperature: -30~300 degree celcius

Realtemp Log:
Spoiler

DATE TIME MHz CPU_0 CPU_1 LOAD%
04/04/13 23:53:00 1197.00 61 59 24.3
04/04/13 23:53:30 1197.00 61 60 15.8
04/04/13 23:54:00 1197.00 61 60 32.9
04/04/13 23:54:30 1197.00 62 59 49.3
04/04/13 23:55:00 1396.50 64 62 47.7
04/04/13 23:55:30 1197.00 63 61 24.3
04/04/13 23:56:00 1695.75 66 64 68.8
04/04/13 23:56:30 1197.00 62 60 36.8
04/04/13 23:57:00 1197.00 63 61 50.9
04/04/13 23:57:30 1256.85 67 65 70.4
04/04/13 23:58:00 1336.65 68 66 49.3
04/04/13 23:58:30 1436.40 70 69 56.3
04/04/13 23:59:00 1197.00 64 63 31.4
04/04/13 23:59:30 1197.00 63 62 20.4
04/05/13 00:00:00 1197.00 63 61 47.0
04/05/13 00:00:30 1197.00 63 61 34.5
04/05/13 00:01:00 1197.00 62 61 25.9
04/05/13 00:01:30 1336.65 62 61 48.5
04/05/13 00:02:00 1197.00 63 61 17.3
04/05/13 00:02:30 1197.00 61 59 18.9
04/05/13 00:03:00 1197.00 61 59 25.1
04/05/13 00:03:30 1197.00 61 59 23.6
04/05/13 00:04:00 2194.50 75 73 77.4
04/05/13 00:04:30 1197.00 63 61 21.2
04/05/13 00:05:00 1197.00 64 62 31.4
04/05/13 00:05:30 1197.00 64 62 57.1
04/05/13 00:06:00 1197.00 64 62 42.3
04/05/13 00:06:30 1197.00 66 65 43.8
04/05/13 00:07:00 1197.00 64 63 50.9
04/05/13 00:07:30 1197.00 63 62 30.6
04/05/13 00:08:00 1197.00 63 62 53.2
04/05/13 00:08:30 1197.00 63 62 54.8
04/05/13 00:09:00 1216.95 66 65 41.5
04/05/13 00:09:30 1197.00 64 63 31.4
04/05/13 00:10:00 1935.15 67 66 65.7
04/05/13 00:10:30 1197.00 65 63 47.7
04/05/13 00:11:00 279.30 64 62 29.0
04/05/13 00:11:30 79.80 63 61 43.1
04/05/13 00:12:00 1097.25 61 59 14.2
04/05/13 00:13:00 877.80 59 57 12.6
04/05/13 00:13:30 758.10 59 58 20.4
04/05/13 00:14:00 558.60 61 60 38.0
04/05/13 00:14:30 618.45 61 59 32.9
04/05/13 00:15:00 738.15 61 59 53.2
04/05/13 00:15:30 399.00 59 58 23.6
04/05/13 00:16:00 498.75 59 58 26.7
04/05/13 00:16:30 1197.00 61 59 42.3
04/05/13 00:17:00 1197.00 58 56 8.0
04/05/13 00:17:30 1197.00 59 57 25.1
04/05/13 00:18:00 1197.00 58 57 8.7
04/05/13 00:18:30 1197.00 60 58 54.0
04/05/13 00:19:00 1197.00 59 58 48.5
04/05/13 00:19:30 1197.00 58 56 12.6
04/05/13 00:20:00 1197.00 58 56 22.8
04/05/13 00:20:30 1197.00 58 56 13.4
04/05/13 00:21:00 1197.00 58 56 10.3
04/05/13 00:21:30 1236.90 59 57 31.4
04/05/13 00:22:00 1197.00 57 56 8.0
04/05/13 00:22:30 1197.00 58 56 35.3
04/05/13 00:23:00 1276.80 58 56 39.9
04/05/13 00:23:30 1197.00 57 56 15.0
04/05/13 00:24:00 1197.00 57 55 12.6
04/05/13 00:24:30 1197.00 57 55 27.7
04/05/13 00:25:00 1197.00 58 56 9.5
04/05/13 00:25:30 1197.00 56 55 8.7
04/05/13 00:26:00 2194.50 76 69 88.3
04/05/13 14:38:00 1197.00 51 50 4.8
04/05/13 14:38:30 1276.80 53 54 38.4
04/05/13 14:39:00 2194.50 65 65 92.2
04/05/13 14:39:30 1197.00 53 53 20.6
04/05/13 14:40:00 1197.00 52 51 14.2
04/05/13 14:40:30 1436.40 55 53 31.4
04/05/13 14:41:00 1197.00 54 52 36.8
04/05/13 14:41:30 1197.00 54 53 27.5
04/05/13 14:42:00 1336.65 56 54 66.5
04/05/13 14:42:30 1197.00 55 53 38.4
04/05/13 14:43:00 1197.00 54 53 22.0
04/05/13 14:43:30 1197.00 55 53 25.1
04/05/13 14:44:00 1197.00 55 53 20.4
04/05/13 14:44:30 1197.00 56 55 20.2
04/05/13 14:45:00 1197.00 56 54 22.8
04/05/13 14:45:30 1197.00 56 55 38.4
04/05/13 14:46:00 1197.00 57 55 37.6
04/05/13 14:46:30 1197.00 57 55 37.6
04/05/13 14:47:00 1197.00 58 55 36.8
04/05/13 14:47:30 1197.00 57 55 28.2
04/05/13 14:48:00 1197.00 56 55 23.6
04/05/13 14:48:30 1197.00 57 55 43.8
04/05/13 14:49:00 2094.75 68 64 71.1
04/05/13 14:49:30 1197.00 57 55 61.0
04/05/13 14:50:00 1496.25 60 57 67.2
04/05/13 14:50:30 1197.00 58 56 45.4
04/05/13 14:51:00 1197.00 60 58 48.8
04/05/13 14:51:30 1276.80 59 56 45.4
04/05/13 14:52:00 1197.00 57 55 32.1
04/05/13 14:52:30 1197.00 59 56 44.6
04/05/13 14:53:00 1197.00 59 57 39.9
04/05/13 14:53:30 1276.80 62 60 60.2
04/05/13 14:54:00 1197.00 59 57 43.1
04/05/13 14:54:30 1197.00 58 56 42.4
04/05/13 14:55:00 1416.45 60 57 80.5
04/05/13 14:55:30 1336.65 59 56 52.4
04/05/13 14:56:00 1197.00 58 56 22.0
04/05/13 14:56:30 1197.00 59 57 58.1
04/05/13 14:57:00 1197.00 59 57 37.6
04/05/13 14:57:30 1536.15 60 59 53.2
04/05/13 14:58:00 1197.00 58 55 25.9
04/05/13 14:58:30 1197.00 59 58 23.6
04/05/13 14:59:00 1197.00 59 57 44.7
04/05/13 14:59:30 1197.00 57 55 16.5
04/05/13 15:00:00 1197.00 57 55 16.6
04/05/13 15:00:30 1197.00 57 55 22.8
04/05/13 15:01:00 1197.00 57 55 18.3
04/05/13 15:01:30 1197.00 58 55 18.9
04/05/13 15:02:00 1197.00 59 55 46.2
04/05/13 15:02:30 1197.00 59 57 29.8
04/05/13 15:03:00 1197.00 58 56 31.4
04/05/13 15:03:30 1197.00 58 56 18.1
04/05/13 15:04:00 1197.00 59 56 22.0
04/05/13 15:04:30 1197.00 59 57 18.9
04/05/13 15:05:00 1197.00 58 56 21.2
04/05/13 15:05:30 1197.00 59 57 25.1
04/05/13 15:06:00 1197.00 58 56 20.4
04/05/13 15:06:30 1197.00 60 58 25.9
04/05/13 15:07:00 1197.00 59 57 28.2
04/05/13 15:07:30 1197.00 59 56 16.5
04/05/13 15:08:00 1197.00 58 56 9.5
04/05/13 15:08:30 1197.00 58 55 7.2
04/05/13 15:09:00 1256.85 67 65 58.7
04/05/13 15:09:30 1596.00 63 61 57.9
04/05/13 15:10:00 2074.80 66 63 78.2
04/05/13 15:10:30 2194.50 75 73 82.1
04/05/13 15:11:00 1197.00 65 63 39.2
04/05/13 15:11:30 1216.95 63 61 40.7
04/05/13 15:12:00 1197.00 62 60 41.5
04/05/13 15:12:30 1436.40 69 68 81.3
04/05/13 15:13:00 1197.00 62 60 18.1
04/05/13 15:13:30 1236.90 65 63 59.5
04/05/13 15:14:00 1197.00 62 60 4.4
04/05/13 15:14:30 1197.00 62 60 3.3
04/05/13 15:15:00 1197.00 61 59 5.6
04/05/13 15:15:30 2194.50 74 70 72.7
04/05/13 15:16:00 1197.00 63 61 21.2
04/05/13 15:16:30 1197.00 62 60 14.2
04/05/13 15:17:30 1197.00 61 58 16.5
04/05/13 15:18:00 1197.00 62 60 25.9
04/05/13 15:18:30 1197.00 62 60 32.9
04/05/13 15:19:00 1197.00 62 60 36.0
04/05/13 15:19:30 1197.00 62 59 32.9
04/05/13 15:20:00 1197.00 62 60 31.4
04/05/13 15:20:30 1197.00 63 61 34.5
04/05/13 15:21:00 1197.00 60 58 4.8
04/05/13 15:21:30 1476.30 60 58 4.8
04/05/13 15:22:00 2174.55 77 72 20.4
04/05/13 15:22:30 2074.80 68 65 11.9
04/05/13 15:23:00 2134.65 70 68 14.2
04/05/13 15:23:30 1197.00 62 61 29.8
04/05/13 15:24:00 1695.75 62 60 2.5
04/05/13 15:24:30 1995.00 69 67 25.9
04/05/13 15:25:00 2074.80 69 68 30.3
04/05/13 15:25:30 2094.75 69 67 12.9
04/05/13 15:26:00 1955.10 65 64 11.1
04/05/13 15:26:30 1875.30 64 63 18.1
04/05/13 15:27:00 1735.65 64 62 5.6
04/05/13 15:27:30 1655.85 64 62 2.5
04/05/13 15:28:00 2074.80 67 66 23.6
04/05/13 15:28:30 2194.50 81 79 99.2
04/05/13 15:29:00 2094.75 75 75 25.1
04/05/13 15:29:30 1995.00 71 70 27.5
04/05/13 15:30:00 1935.15 69 67 22.8
04/05/13 15:30:30 2054.85 71 70 25.9
04/05/13 15:31:00 2054.85 69 67 8.0
04/05/13 15:31:30 2194.50 76 72 53.2
04/05/13 15:32:00 2114.70 75 73 30.6
04/05/13 15:32:30 2194.50 78 75 43.8
04/05/13 15:33:00 2194.50 82 82 100.0
04/05/13 15:33:30 2194.50 80 79 81.3
04/05/13 15:34:00 2114.70 76 75 20.4
04/05/13 15:34:30 1855.35 70 69 4.1
04/05/13 15:35:00 1795.50 68 68 26.7
04/05/13 15:35:30 1715.70 65 65 4.1
04/05/13 15:36:00 2194.50 77 76 67.2
04/05/13 15:36:30 2194.50 76 79 62.6
04/05/13 15:37:00 2034.90 70 70 21.2
04/05/13 15:37:30 1695.75 66 65 2.5
04/05/13 15:38:00 2134.65 78 77 45.0
04/05/13 15:38:30 2174.55 72 70 54.8
04/05/13 15:39:00 2174.55 71 71 34.5
04/05/13 15:39:30 1715.70 66 65 4.8
04/05/13 15:40:00 2174.55 74 72 44.6
04/05/13 15:40:30 2194.50 75 75 50.9
04/05/13 15:41:00 2194.50 77 77 44.6
04/05/13 15:41:30 2014.95 70 69 12.1
04/05/13 15:42:00 2034.90 69 69 14.2
04/05/13 15:42:30 2174.55 74 72 43.1
04/05/13 15:43:00 2174.55 78 77 48.5
04/05/13 15:43:30 2194.50 77 77 77.4
04/05/13 15:44:00 2174.55 78 77 44.9
04/05/13 15:44:30 2174.55 76 75 66.5
04/05/13 15:45:00 2174.55 76 75 34.5
04/05/13 15:45:30 2174.55 76 75 35.3
04/05/13 15:46:00 2174.55 74 76 26.7
04/05/13 15:46:30 1875.30 69 68 13.4
04/05/13 15:47:00 2174.55 76 74 40.2
04/05/13 15:47:30 2174.55 75 74 29.8
04/05/13 15:48:00 2154.60 76 76 34.5
04/05/13 15:48:30 2194.50 80 78 78.9
04/05/13 15:49:00 2194.50 77 77 48.5
04/05/13 15:49:30 2094.75 75 73 32.1
04/05/13 15:50:00 2034.90 73 71 18.9
04/05/13 15:50:30 2014.95 72 71 17.5
04/05/13 15:51:00 1735.65 68 67 15.8
04/05/13 15:51:30 1935.15 70 69 22.9
04/05/13 15:52:00 1675.80 67 66 9.6
04/05/13 15:52:30 1835.40 67 65 8.0
04/05/13 15:53:00 1935.15 67 66 10.3
04/05/13 15:53:30 1895.25 67 65 5.6
04/05/13 15:54:00 1655.85 64 63 4.1
04/05/13 15:54:30 1615.95 66 64 0.9
04/05/13 15:55:00 2074.80 71 69 22.8
04/05/13 15:55:30 2074.80 69 68 27.5
04/05/13 15:56:00 1875.30 66 64 15.8
04/05/13 15:56:30 2054.85 69 67 21.2
04/05/13 15:57:00 1955.10 68 66 21.2
04/05/13 15:57:30 1775.55 66 64 15.0
04/05/13 15:58:00 1895.25 64 63 12.6
04/05/13 15:58:30 1915.20 66 65 14.2
04/05/13 15:59:00 1935.15 65 63 12.6
04/05/13 15:59:30 1895.25 67 65 15.8
04/05/13 16:00:00 1875.30 66 64 9.5
04/05/13 16:00:30 1915.20 67 65 8.7
04/05/13 16:01:00 1975.05 65 62 19.7
04/05/13 16:01:30 1935.15 65 63 8.0
04/05/13 16:02:00 1635.90 63 61 3.3
04/05/13 16:02:30 2014.95 67 66 25.1
04/05/13 16:03:30 1995.00 67 65 23.6
04/05/13 16:04:00 1995.00 66 65 21.3
04/05/13 16:04:30 2014.95 66 65 25.9
04/05/13 16:05:00 2034.90 69 68 25.9
04/05/13 16:05:30 2054.85 69 69 24.3
04/05/13 16:06:00 2054.85 69 67 22.8
04/05/13 16:06:30 2014.95 69 67 18.9
04/05/13 16:07:00 2134.65 71 70 34.5
04/05/13 16:07:30 2134.65 70 69 32.1
04/05/13 16:08:00 2094.75 70 69 27.1
04/05/13 16:08:30 2114.70 73 71 29.8
04/05/13 16:09:00 2194.50 76 75 38.4
04/05/13 16:09:30 2194.50 71 70 45.4
04/05/13 16:10:00 2194.50 70 70 35.3
04/05/13 16:10:30 2074.80 70 70 15.0
04/05/13 16:11:00 2174.55 72 73 35.8
04/05/13 16:11:30 2134.65 73 73 40.7
04/05/13 16:12:00 2194.50 74 75 44.6
04/05/13 16:12:30 2194.50 82 79 61.8
04/05/13 16:12:30 2194.50 83 82 100.0
04/05/13 16:13:00 1815.45 71 69 61.0
04/05/13 16:13:30 1735.65 68 68 16.5
04/05/13 16:14:00 1615.95 66 64 6.4
04/05/13 18:48:00 2174.55 59 56 0.0
04/05/13 18:48:30 1935.15 51 50 11.1
04/05/13 18:49:00 1236.90 53 54 27.5
04/05/13 18:49:30 1316.70 52 52 50.4
04/05/13 18:50:00 1197.00 51 50 4.8
04/05/13 18:50:30 1197.00 54 53 39.2
04/05/13 18:51:00 1197.00 54 53 42.3
04/05/13 18:51:30 1197.00 54 53 29.0
04/05/13 18:52:00 1197.00 55 53 26.7
04/05/13 18:52:30 1197.00 55 55 16.6
04/05/13 18:53:00 1197.00 55 54 27.5
04/05/13 18:53:30 1197.00 54 53 9.5
04/05/13 18:54:00 1197.00 54 53 20.4
04/05/13 18:54:30 1197.00 55 55 32.9
04/05/13 18:55:00 1197.00 55 54 10.3
04/05/13 18:55:30 1197.00 55 54 18.1
04/05/13 18:56:00 1197.00 56 55 13.4
04/05/13 18:56:30 1197.00 55 55 15.8
04/05/13 18:57:00 1197.00 57 55 25.9
04/05/13 18:57:30 1197.00 57 55 26.0
04/05/13 18:58:00 1197.00 58 56 22.0
04/05/13 18:58:30 1197.00 58 56 15.0
04/05/13 18:59:00 1197.00 57 55 34.5
04/05/13 18:59:30 1197.00 57 55 4.8
04/05/13 19:00:00 1197.00 57 55 4.8
04/05/13 19:00:30 1197.00 57 55 25.1
04/05/13 19:01:00 1197.00 58 56 19.0
04/05/13 19:01:30 1197.00 58 56 24.3
04/05/13 19:02:00 1197.00 58 56 7.2
04/05/13 19:02:30 1197.00 60 59 33.7
04/05/13 19:03:00 1336.65 60 59 57.9
04/05/13 19:03:30 1197.00 58 57 8.0
04/05/13 19:04:00 1197.00 58 56 15.0
04/05/13 19:04:30 1197.00 60 58 40.0
04/05/13 19:05:00 1197.00 60 59 23.6
04/05/13 19:05:30 1197.00 58 56 26.7
04/05/13 19:06:00 1197.00 58 57 15.0
04/05/13 19:06:30 1197.00 58 56 3.3
04/05/13 19:07:00 1197.00 57 55 3.3
04/05/13 19:07:30 1197.00 58 56 3.3
04/05/13 19:08:00 1197.00 58 56 20.4
04/05/13 19:08:30 1197.00 60 58 8.0
04/05/13 19:09:00 1197.00 60 59 26.0
04/05/13 19:09:30 1197.00 60 59 27.5
04/05/13 19:10:00 1975.05 66 65 78.2
04/05/13 19:11:00 1216.95 63 62 54.0
04/05/13 19:11:30 1197.00 61 60 11.2
04/05/13 19:12:00 1197.00 60 58 8.0
04/05/13 19:12:30 1197.00 60 58 5.6
04/05/13 19:13:00 1197.00 60 58 4.1
04/05/13 19:13:30 1197.00 62 62 27.5
04/05/13 19:14:00 2194.50 70 73 59.4
04/05/13 19:14:30 1197.00 62 61 25.1
04/05/13 19:15:00 1197.00 61 59 23.6
04/05/13 19:15:30 1197.00 65 65 62.6
04/05/13 19:16:00 1197.00 63 61 23.6
04/05/13 19:16:30 1197.00 63 62 28.2
04/05/13 19:17:00 1197.00 65 64 27.5
04/05/13 19:17:30 1197.00 65 63 39.2
04/05/13 19:18:00 1197.00 63 62 25.2
04/05/13 19:18:30 1197.00 64 63 33.7
04/05/13 19:19:00 1197.00 63 61 50.9
04/05/13 19:19:30 1197.00 63 62 24.3
04/05/13 19:20:00 1197.00 67 65 27.5
04/05/13 19:20:30 1216.95 67 66 67.2
04/05/13 19:21:00 1197.00 66 65 32.1
04/05/13 19:21:30 1197.00 64 63 20.4
04/05/13 19:22:00 1336.65 66 65 68.1
04/05/13 19:22:30 1197.00 64 63 25.9
04/05/13 19:23:00 1197.00 65 64 34.6
04/05/13 19:23:30 1197.00 63 62 22.0
04/05/13 19:24:00 1197.00 63 62 25.1
04/05/13 19:24:30 1197.00 62 61 18.2
04/05/13 19:25:00 1316.70 66 66 54.8
04/05/13 19:25:30 1216.95 64 63 71.1
04/05/13 19:26:00 1197.00 64 63 28.2
04/05/13 19:26:30 1915.20 71 70 81.3
04/05/13 19:27:00 1197.00 65 64 34.5
04/05/13 19:27:30 1197.00 64 63 53.2
04/05/13 19:28:00 1197.00 64 62 24.3
04/05/13 19:28:30 1197.00 63 62 22.8
04/05/13 19:29:00 1197.00 63 63 20.4
04/05/13 19:29:30 1197.00 62 62 18.9
04/05/13 19:30:00 1197.00 63 62 24.3
04/05/13 19:30:30 1715.70 68 70 51.8
04/05/13 19:31:00 1197.00 63 62 25.9
04/05/13 19:31:30 1256.85 65 66 26.7
04/05/13 19:32:00 1197.00 63 62 20.5
04/05/13 19:32:30 1256.85 64 63 60.2
04/05/13 19:33:00 1376.55 68 67 32.1
04/05/13 19:33:30 1197.00 63 62 10.3
04/05/13 19:34:00 1895.25 66 65 61.0
04/05/13 19:34:30 1276.80 62 60 40.7
04/05/13 19:35:00 1197.00 61 59 8.0
04/05/13 19:35:30 1197.00 61 59 3.3
04/05/13 19:36:00 2194.50 74 70 50.9
04/05/13 19:36:30 2194.50 79 78 87.5
04/05/13 19:37:00 2194.50 80 77 65.7
04/05/13 19:37:30 2194.50 83 81 76.6
04/05/13 19:38:00 2194.50 79 79 47.0
04/05/13 19:38:30 2194.50 88 87 82.1
04/05/13 19:39:00 2194.50 91 90 84.4
04/05/13 19:39:30 2194.50 92 92 84.4
04/05/13 19:40:00 2194.50 93 93 79.7
04/05/13 19:40:30 2194.50 93 93 71.9
04/05/13 19:41:00 2194.50 94 95 90.6
04/05/13 19:41:30 2194.50 94 94 76.6
04/05/13 19:42:00 2194.50 97 95 76.6
04/05/13 19:43:30 2194.50 94 94 81.4
04/05/13 19:44:00 2194.50 95 95 61.8
04/05/13 19:44:30 1795.50 82 82 5.6
04/05/13 19:45:00 2194.50 94 92 88.3
04/05/13 19:45:30 2194.50 82 82 52.5
04/05/13 19:46:00 1875.30 75 73 17.3
04/05/13 19:46:30 1875.30 73 71 8.7
04/05/13 19:47:00 1995.00 74 74 32.1
04/05/13 19:47:30 2174.55 76 75 41.5
04/05/13 19:48:00 2074.80 76 74 54.0
04/05/13 19:48:30 1915.20 74 74 11.9
04/05/13 19:49:00 2094.75 77 77 21.2
04/05/13 19:50:00 1895.25 73 71 11.1
04/05/13 19:50:30 1955.10 75 73 14.2
04/05/13 19:51:00 1995.00 72 71 11.9
04/05/13 19:51:30 2134.65 76 75 20.4
04/05/13 19:52:00 2114.70 75 74 34.5
04/05/13 19:52:30 2014.95 74 73 35.3
04/05/13 19:53:00 2014.95 74 72 22.8
04/05/13 19:53:30 1935.15 73 73 22.0
04/05/13 19:54:00 2114.70 76 75 28.3
04/05/13 19:54:30 2074.80 76 75 34.5
04/05/13 19:55:00 1995.00 74 72 34.5
04/05/13 19:55:30 2194.50 82 82 79.7
04/05/13 19:56:00 1995.00 75 74 31.4
04/05/13 19:56:30 2094.75 74 74 43.8
04/05/13 19:57:00 2194.50 80 83 88.3
04/05/13 19:57:30 2074.80 74 73 23.6
04/05/13 19:58:00 1915.20 70 70 15.8
04/05/13 19:58:30 1915.20 71 70 19.0
04/05/13 19:59:00 1915.20 69 68 17.3
04/05/13 19:59:30 1895.25 69 68 17.3
04/05/13 20:00:00 2094.75 70 70 30.6
04/05/13 20:00:30 1915.20 69 69 22.0
04/05/13 20:01:00 1935.15 69 68 15.0
04/05/13 20:01:30 2074.80 71 70 26.7
04/05/13 20:02:00 1895.25 68 67 14.2
04/05/13 20:02:30 1995.00 68 67 27.5
04/05/13 20:03:00 2134.65 73 71 43.1
04/05/13 20:03:30 1855.35 69 69 22.0
04/05/13 20:04:00 1855.35 67 66 11.1
04/05/13 20:04:30 2174.55 79 78 55.5
04/05/13 20:05:00 1835.40 71 70 21.2


Or download the file http://goo.gl/cROR4
a b à CPUs
April 5, 2013 7:49:20 AM

First of all... Why did you apply new paste if you weren't having the problem before?

What did you use to clean the old thermal compound off? Did you remove it from both the CPU and the heatsink?

I don't know which thermal compound that is, but it seems to be not a very good one. Most good compounds have a Thermal conductivity above 8.5W/(m-K)

When you applied the new paste, how much did you use?
m
0
l
April 5, 2013 7:55:12 AM

You should clean cpu and cooler very good and set just a little paste on CPU.
m
0
l
Related resources
a c 139 à CPUs
April 5, 2013 7:57:05 AM

applying thermalpaste too thick or too thin can cause but most laptop max is 100C :D 
m
0
l
April 5, 2013 7:57:31 AM

itzdanielp said:
First of all... Why did you apply new paste if you weren't having the problem before?

What did you use to clean the old thermal compound off? Did you remove it from both the CPU and the heatsink?

I don't know which thermal compound that is, but it seems to be not a very good one. Most good compounds have a Thermal conductivity above 8.5W/(m-K)

When you applied the new paste, how much did you use?

disassembly of the laptop requires new paste and it had become very hard too, i removed the paste correctly from both the areas and re-applied using the spread method.

Ya it was a very cheap paste but iam not sure that it will lead to a problem like this.
m
0
l

Best solution

a b à CPUs
April 5, 2013 10:05:04 AM

Some laptops you a thermal pad so when you replace that with paste, it might not be quite as thick so you end up with poor contact and higher temperatures. You will need to take it apart and have a really close look. You might be able to shim something to improve the heatsink - CPU contact pressure and use some decent paste while you are in there.
Share
April 5, 2013 10:14:45 AM

unclewebb said:
Some laptops you a thermal pad so when you replace that with paste, it might not be quite as thick so you end up with poor contact and higher temperatures. You will need to take it apart and have a really close look. You might be able to shim something to improve the heatsink - CPU contact pressure and use some decent paste while you are in there.


it not a thermal pad thingy, looks like i have to take it apart again and tighten the screws with better paste
m
0
l
!